Flugplatz Dortmund

Bericht für EDLW

vom 14.08. um 07:20 UTC

variable Windrichtung mit 2 kt

Sichtweite 10 km oder mehr

gute Sicht, keine Wolken < 5000 ft, keine CB, keine Wettererscheinungen (CAVOK)

Temperatur 22.0°C

Taupunkt 19.0°C

Luftfeuchtigkeit 83%

Luftdruck 1013 hPa

EDLW 140720Z VRB02KT CAVOK 22/19 Q1013

Prognose für EDLW

vom 14.08. um 05:00 UTC

Zwischen 06:00 UTC und 06:00 UTC

Wind 5 kt aus 190°

Sichtweite 10 km oder mehr

keine signifikanten Wettererscheinungen

keine Wolken


Zwischen 06:00 und 09:00 UTC übergehend zu

Wind 5 kt aus 270°

Sichtweite 10 km oder mehr

keine signifikanten Wettererscheinungen

keine Wolken


Zwischen 14:00 UTC und 21:00 UTC zeitweise mit einer Wahrscheinlichkeit von 30%

Code: TSRA

aufgebrochene Bewölkung in 2500 ft


Zwischen 17:00 und 20:00 UTC übergehend zu

Wind 5 kt aus 210°

Sichtweite 10 km oder mehr

keine signifikanten Wettererscheinungen

keine Wolken


Am 15.08. zwischen 02:00 UTC und 06:00 UTC zeitweise mit einer Wahrscheinlichkeit von 30%

Sichtweite 4000 m

feuchter Dunst

aufgebrochene Bewölkung in 800 ft

TAF EDLW 140500Z 1406/1506 19005KT CAVOK BECMG 1406/1409 27005KT PROB30 TEMPO 1414/1421 TSRA BKN025CB BECMG 1417/1420 21005KT PROB30 TEMPO 1502/1506 4000 BR BKN008
Impressum